sim
Sign-in with your pilot id or email,
or register
Callsign
Passwort

Schedule Details

Flight Number: RYR8806 (2)
Departure: Milan Bergamo Il Caravaggio International Airport (LIME) at 08:40
Arrival: Fuerteventura Airport (GCFV) at 12:55
Route: Ryanair Passenger Schedule. Enter filed route here before submitting Pirep.

Weather Information
Getting current METAR information for LIME 160220Z 36003KT CAVOK 03/M00 Q1032 NOSIG
Getting current METAR information for GCFV 160230Z AUTO 28005KT 9999 NCD 13/10 Q1018

Schedule Frequency

Route Map